createdAt,value
2023-01-17T00:00:11.289Z,4.10
2023-01-17T00:00:23.195Z,4.10
2023-01-17T00:00:34.996Z,4.10
2023-01-17T00:00:47.910Z,4.10
2023-01-17T00:01:07.853Z,4.10
2023-01-17T00:01:19.476Z,4.10
2023-01-17T00:01:33.877Z,4.10
2023-01-17T00:01:45.708Z,4.10
2023-01-17T00:01:57.499Z,4.10
2023-01-17T00:02:09.333Z,4.10
2023-01-17T00:02:21.081Z,4.10
2023-01-17T00:02:32.863Z,4.10
2023-01-17T00:02:44.606Z,4.10
2023-01-17T00:02:57.403Z,4.10
2023-01-17T00:03:09.175Z,4.10
2023-01-17T00:03:20.855Z,4.00
2023-01-17T00:03:33.622Z,4.00
2023-01-17T00:04:03.810Z,4.10
2023-01-17T00:04:34.131Z,4.00
2023-01-17T00:05:04.636Z,4.00
2023-01-17T00:05:34.705Z,4.00
2023-01-17T00:06:05.174Z,4.00
2023-01-17T00:06:35.644Z,4.00
2023-01-17T00:07:13.460Z,4.00
2023-01-17T00:07:43.868Z,4.00
2023-01-17T00:08:14.273Z,4.00
2023-01-17T00:08:44.211Z,4.00
2023-01-17T00:09:14.784Z,4.00
2023-01-17T00:09:45.046Z,4.00
2023-01-17T00:09:58.479Z,4.00
2023-01-17T00:10:15.320Z,4.00
2023-01-17T00:10:27.683Z,4.00
2023-01-17T00:10:40.876Z,4.00
2023-01-17T00:10:52.527Z,4.00
2023-01-17T00:11:04.228Z,4.00
2023-01-17T00:11:16.813Z,4.00
2023-01-17T00:11:28.484Z,4.00
2023-01-17T00:11:40.113Z,4.00
2023-01-17T00:11:51.894Z,4.00
2023-01-17T00:12:05.378Z,4.00
2023-01-17T00:12:17.444Z,4.00
2023-01-17T00:12:30.430Z,4.00
2023-01-17T00:12:49.500Z,4.00
2023-01-17T00:13:02.479Z,4.00
2023-01-17T00:13:14.161Z,4.00
2023-01-17T00:13:25.836Z,4.00
2023-01-17T00:13:37.733Z,4.00
2023-01-17T00:13:49.875Z,4.00
2023-01-17T00:14:01.561Z,4.00
2023-01-17T00:14:13.226Z,4.00
2023-01-17T00:14:24.922Z,4.00
2023-01-17T00:14:36.568Z,4.00
2023-01-17T00:14:48.506Z,4.00
2023-01-17T00:15:00.742Z,4.00
2023-01-17T00:15:12.522Z,4.00
2023-01-17T00:15:25.048Z,4.00
2023-01-17T00:15:39.715Z,4.00
2023-01-17T00:15:52.097Z,4.00
2023-01-17T00:16:03.920Z,4.00
2023-01-17T00:16:15.723Z,4.00
2023-01-17T00:16:27.415Z,4.00
2023-01-17T00:16:39.045Z,4.00
2023-01-17T00:16:50.771Z,4.00
2023-01-17T00:17:02.590Z,4.00
2023-01-17T00:17:14.418Z,4.00
2023-01-17T00:17:27.012Z,4.00
2023-01-17T00:17:38.646Z,4.00
2023-01-17T00:17:50.469Z,4.00
2023-01-17T00:18:02.131Z,4.00
2023-01-17T00:18:13.795Z,4.00
2023-01-17T00:18:25.491Z,4.00
2023-01-17T00:18:37.114Z,4.00
2023-01-17T00:19:08.740Z,4.00
2023-01-17T00:19:39.172Z,4.00
2023-01-17T00:20:09.411Z,4.00
2023-01-17T00:20:41.550Z,4.00
2023-01-17T00:21:11.894Z,4.00
2023-01-17T00:21:42.352Z,4.00
2023-01-17T00:22:12.334Z,4.00
2023-01-17T00:22:43.414Z,4.00
2023-01-17T00:23:13.443Z,4.00
2023-01-17T00:24:00.745Z,4.00
2023-01-17T00:24:31.109Z,4.00
2023-01-17T00:25:01.460Z,4.00
2023-01-17T00:25:33.358Z,4.00
2023-01-17T00:26:03.410Z,4.00
2023-01-17T00:26:19.065Z,4.00
2023-01-17T00:26:30.745Z,4.00
2023-01-17T00:27:00.764Z,4.00
2023-01-17T00:27:12.410Z,4.00
2023-01-17T00:27:24.079Z,4.00
2023-01-17T00:27:35.670Z,4.00
2023-01-17T00:27:49.732Z,3.90
2023-01-17T00:28:01.415Z,3.90
2023-01-17T00:28:13.057Z,4.00
2023-01-17T00:28:25.201Z,4.00
2023-01-17T00:28:40.678Z,4.00
2023-01-17T00:28:52.326Z,3.90
2023-01-17T00:29:03.934Z,3.90
2023-01-17T00:29:15.577Z,3.90
2023-01-17T00:29:27.221Z,3.90
2023-01-17T00:29:38.907Z,3.90
2023-01-17T00:29:50.584Z,3.90
2023-01-17T00:30:02.218Z,3.90
2023-01-17T00:30:14.088Z,3.90
2023-01-17T00:30:25.838Z,3.90
2023-01-17T00:30:37.481Z,3.90
2023-01-17T00:30:49.074Z,3.90
2023-01-17T00:31:00.788Z,3.90
2023-01-17T00:31:13.870Z,3.90
2023-01-17T00:31:25.622Z,3.90
2023-01-17T00:31:37.306Z,3.90
2023-01-17T00:31:48.914Z,3.90
2023-01-17T00:32:00.586Z,3.90
2023-01-17T00:32:12.211Z,3.90
2023-01-17T00:32:23.843Z,3.90
2023-01-17T00:32:35.470Z,3.90
2023-01-17T00:32:47.057Z,3.90
2023-01-17T00:32:58.636Z,3.90
2023-01-17T00:33:10.261Z,3.90
2023-01-17T00:33:22.253Z,3.90
2023-01-17T00:33:33.893Z,3.90
2023-01-17T00:33:45.503Z,3.90
2023-01-17T00:33:57.086Z,3.90
2023-01-17T00:34:08.725Z,3.90
2023-01-17T00:34:20.433Z,3.90
2023-01-17T00:34:32.311Z,3.90
2023-01-17T00:34:43.909Z,3.90
2023-01-17T00:34:55.492Z,3.90
2023-01-17T00:35:07.388Z,3.90
2023-01-17T00:35:19.761Z,3.90
2023-01-17T00:35:31.727Z,3.90
2023-01-17T00:35:43.404Z,3.90
2023-01-17T00:35:56.496Z,4.00
2023-01-17T00:36:08.715Z,4.00
2023-01-17T00:36:20.355Z,3.90
2023-01-17T00:36:31.995Z,4.00
2023-01-17T00:36:43.582Z,4.00
2023-01-17T00:36:55.197Z,3.90
2023-01-17T00:37:06.830Z,3.90
2023-01-17T00:37:18.420Z,4.00
2023-01-17T00:37:30.146Z,3.90
2023-01-17T00:37:41.787Z,3.90
2023-01-17T00:38:10.045Z,4.00
2023-01-17T00:38:23.225Z,3.90
2023-01-17T00:38:36.540Z,3.90
2023-01-17T00:38:48.221Z,3.90
2023-01-17T00:38:59.845Z,3.90
2023-01-17T00:39:11.573Z,3.90
2023-01-17T00:39:23.210Z,3.90
2023-01-17T00:39:34.848Z,3.90
2023-01-17T00:39:46.473Z,3.90
2023-01-17T00:39:58.106Z,3.90
2023-01-17T00:40:10.350Z,3.90
2023-01-17T00:40:22.017Z,3.90
2023-01-17T00:40:34.574Z,3.90
2023-01-17T00:40:46.571Z,3.90
2023-01-17T00:41:11.492Z,3.90
2023-01-17T00:41:23.125Z,3.90
2023-01-17T00:41:34.717Z,3.90
2023-01-17T00:41:46.297Z,3.90
2023-01-17T00:41:57.935Z,3.90
2023-01-17T00:42:09.555Z,3.90
2023-01-17T00:42:21.330Z,3.90
2023-01-17T00:42:32.989Z,3.90
2023-01-17T00:42:47.533Z,3.90
2023-01-17T00:43:17.945Z,3.90
2023-01-17T00:43:48.460Z,3.90
2023-01-17T00:44:18.843Z,3.90
2023-01-17T00:44:49.328Z,3.90
2023-01-17T00:45:19.857Z,3.90
2023-01-17T00:45:50.009Z,3.90
2023-01-17T00:46:20.171Z,3.90
2023-01-17T00:46:50.655Z,3.90
2023-01-17T00:47:20.586Z,3.90
2023-01-17T00:47:53.074Z,3.90
2023-01-17T00:48:23.271Z,3.90
2023-01-17T00:48:53.199Z,3.90
2023-01-17T00:49:23.589Z,3.90
2023-01-17T00:49:53.869Z,3.90
2023-01-17T00:50:24.572Z,3.90
2023-01-17T00:50:55.964Z,3.90
2023-01-17T00:51:26.344Z,4.00
2023-01-17T00:51:56.791Z,4.00
2023-01-17T00:52:27.078Z,4.00
2023-01-17T00:52:57.225Z,4.00
2023-01-17T00:53:27.636Z,4.00
2023-01-17T00:53:58.144Z,4.00
2023-01-17T00:54:28.820Z,4.00
2023-01-17T00:54:59.095Z,3.90
2023-01-17T00:55:29.590Z,3.90
2023-01-17T00:55:59.911Z,3.90
2023-01-17T00:56:30.012Z,3.90
2023-01-17T00:57:00.532Z,3.90
2023-01-17T00:57:30.685Z,3.90
2023-01-17T00:58:01.066Z,3.90
2023-01-17T00:58:30.986Z,3.90
2023-01-17T00:59:00.949Z,3.90
2023-01-17T00:59:30.889Z,3.90
2023-01-17T01:00:01.347Z,3.90
2023-01-17T01:00:31.887Z,3.80
2023-01-17T01:01:01.980Z,3.80
2023-01-17T01:01:32.665Z,3.80
2023-01-17T01:02:03.067Z,3.80
2023-01-17T01:02:34.050Z,3.80
2023-01-17T01:03:04.063Z,3.80
2023-01-17T01:03:34.549Z,3.80
2023-01-17T01:04:04.988Z,3.80
2023-01-17T01:04:35.407Z,3.80
2023-01-17T01:05:05.429Z,3.80
2023-01-17T01:05:36.177Z,3.80
2023-01-17T01:06:06.586Z,3.80
2023-01-17T01:06:36.647Z,3.80
2023-01-17T01:07:06.628Z,3.80
2023-01-17T01:07:36.995Z,3.80
2023-01-17T01:08:07.037Z,3.80
2023-01-17T01:08:47.558Z,3.80
2023-01-17T01:09:17.978Z,3.80
2023-01-17T01:09:48.514Z,3.90
2023-01-17T01:10:18.545Z,3.90
2023-01-17T01:10:48.922Z,3.90
2023-01-17T01:11:19.329Z,3.90
2023-01-17T01:11:49.628Z,3.90
2023-01-17T01:12:19.604Z,3.90
2023-01-17T01:12:49.714Z,3.90
2023-01-17T01:13:19.970Z,3.90
2023-01-17T01:13:50.153Z,3.90
2023-01-17T01:14:20.746Z,3.80
2023-01-17T01:14:51.243Z,3.80
2023-01-17T01:15:21.650Z,3.80
2023-01-17T01:15:51.988Z,3.80
2023-01-17T01:16:22.932Z,3.80
2023-01-17T01:16:53.349Z,3.80
2023-01-17T01:17:23.831Z,3.80
2023-01-17T01:17:54.201Z,3.80
2023-01-17T01:18:25.653Z,3.80
2023-01-17T01:18:55.948Z,3.80
2023-01-17T01:19:26.307Z,3.80
2023-01-17T01:19:56.225Z,3.80
2023-01-17T01:20:27.041Z,3.80
2023-01-17T01:20:56.902Z,3.70
2023-01-17T01:21:27.216Z,3.70
2023-01-17T01:21:57.546Z,3.80
2023-01-17T01:22:27.643Z,3.70
2023-01-17T01:22:57.648Z,3.70
2023-01-17T01:23:28.157Z,3.70
2023-01-17T01:23:58.684Z,3.70
2023-01-17T01:24:28.896Z,3.70
2023-01-17T01:24:59.300Z,3.70
2023-01-17T01:25:29.264Z,3.70
2023-01-17T01:25:59.769Z,3.70
2023-01-17T01:26:30.148Z,3.70
2023-01-17T01:27:00.697Z,3.60
2023-01-17T01:27:31.165Z,3.70
2023-01-17T01:28:01.575Z,3.70
2023-01-17T01:28:32.258Z,3.60
2023-01-17T01:29:02.672Z,3.60
2023-01-17T01:29:32.577Z,3.70
2023-01-17T01:30:02.965Z,3.70
2023-01-17T01:30:33.400Z,3.70
2023-01-17T01:31:03.870Z,3.70
2023-01-17T01:31:34.046Z,3.70
2023-01-17T01:32:04.501Z,3.70
2023-01-17T01:32:34.620Z,3.70
2023-01-17T01:33:05.038Z,3.70
2023-01-17T01:33:19.248Z,3.70
2023-01-17T01:33:30.821Z,3.70
2023-01-17T01:33:42.474Z,3.70
2023-01-17T01:33:54.295Z,3.70
2023-01-17T01:34:06.000Z,3.70
2023-01-17T01:34:17.815Z,3.70
2023-01-17T01:34:29.532Z,3.70
2023-01-17T01:34:41.193Z,3.70
2023-01-17T01:34:52.821Z,3.70
2023-01-17T01:35:04.867Z,3.70
2023-01-17T01:35:16.972Z,3.70
2023-01-17T01:35:28.816Z,3.70
2023-01-17T01:35:41.859Z,3.70
2023-01-17T01:35:54.622Z,3.70
2023-01-17T01:36:07.761Z,3.70
2023-01-17T01:36:19.523Z,3.70
2023-01-17T01:36:31.224Z,3.70
2023-01-17T01:36:42.877Z,3.70
2023-01-17T01:36:54.574Z,3.70
2023-01-17T01:37:06.216Z,3.70
2023-01-17T01:37:17.905Z,3.70
2023-01-17T01:37:30.395Z,3.70
2023-01-17T01:37:42.074Z,3.70
2023-01-17T01:37:53.869Z,3.70
2023-01-17T01:38:05.482Z,3.70
2023-01-17T01:38:18.355Z,3.70
2023-01-17T01:38:30.003Z,3.70
2023-01-17T01:38:41.734Z,3.70
2023-01-17T01:38:54.513Z,3.70
2023-01-17T01:39:06.285Z,3.70
2023-01-17T01:39:17.916Z,3.70
2023-01-17T01:39:29.611Z,3.70
2023-01-17T01:39:41.249Z,3.70
2023-01-17T01:39:52.885Z,3.70
2023-01-17T01:40:05.184Z,3.70
2023-01-17T01:40:17.370Z,3.70
2023-01-17T01:40:29.070Z,3.70
2023-01-17T01:40:48.497Z,3.70
2023-01-17T01:41:00.134Z,3.80
2023-01-17T01:41:12.062Z,3.80
2023-01-17T01:41:23.768Z,3.70
2023-01-17T01:41:35.443Z,3.70
2023-01-17T01:41:47.162Z,3.70
2023-01-17T01:41:58.850Z,3.70
2023-01-17T01:42:14.506Z,3.70
2023-01-17T01:42:26.233Z,3.70
2023-01-17T01:42:37.946Z,3.70
2023-01-17T01:42:53.277Z,3.70
2023-01-17T01:43:06.006Z,3.70
2023-01-17T01:43:20.199Z,3.70
2023-01-17T01:43:47.870Z,3.70
2023-01-17T01:43:59.514Z,3.70
2023-01-17T01:44:43.369Z,3.70
2023-01-17T01:44:55.127Z,3.70
2023-01-17T01:45:17.591Z,3.70
2023-01-17T01:45:30.500Z,3.70
2023-01-17T01:45:45.523Z,3.70
2023-01-17T01:45:57.297Z,3.70
2023-01-17T01:46:11.150Z,3.70
2023-01-17T01:46:40.753Z,3.70
2023-01-17T01:46:52.476Z,3.70
2023-01-17T01:47:04.127Z,3.70
2023-01-17T01:47:19.538Z,3.70
2023-01-17T01:47:33.599Z,3.70
2023-01-17T01:47:45.477Z,3.70
2023-01-17T01:48:01.975Z,3.70
2023-01-17T01:48:19.466Z,3.70
2023-01-17T01:48:33.615Z,3.70
2023-01-17T01:48:51.478Z,3.70
2023-01-17T01:49:15.621Z,3.70
2023-01-17T01:49:29.573Z,3.70
2023-01-17T01:49:41.282Z,3.70
2023-01-17T01:49:52.969Z,3.70
2023-01-17T01:50:06.695Z,3.70
2023-01-17T01:50:18.340Z,3.70
2023-01-17T01:50:30.600Z,3.70
2023-01-17T01:50:43.582Z,3.70
2023-01-17T01:50:55.345Z,3.70
2023-01-17T01:51:09.874Z,3.70
2023-01-17T01:51:28.298Z,3.70
2023-01-17T01:51:44.725Z,3.70
2023-01-17T01:51:58.952Z,3.70
2023-01-17T01:52:10.606Z,3.70
2023-01-17T01:52:23.202Z,3.70
2023-01-17T01:52:35.611Z,3.70
2023-01-17T01:52:48.255Z,3.70
2023-01-17T01:53:00.969Z,3.70
2023-01-17T01:53:12.633Z,3.70
2023-01-17T01:53:24.372Z,3.70
2023-01-17T01:53:38.039Z,3.70
2023-01-17T01:53:51.409Z,3.70
2023-01-17T01:54:12.050Z,3.70
2023-01-17T01:54:29.543Z,3.70
2023-01-17T01:54:47.432Z,3.70
2023-01-17T01:55:07.785Z,3.70
2023-01-17T01:55:22.610Z,3.70
2023-01-17T01:55:39.356Z,3.70
2023-01-17T01:55:51.066Z,3.70
2023-01-17T01:56:03.171Z,3.70
2023-01-17T01:56:15.472Z,3.70
2023-01-17T01:56:27.190Z,3.70
2023-01-17T01:56:38.824Z,3.70
2023-01-17T01:56:50.590Z,3.70
2023-01-17T01:57:03.489Z,3.70
2023-01-17T01:57:16.866Z,3.70
2023-01-17T01:57:31.349Z,3.70
2023-01-17T01:57:45.772Z,3.70
2023-01-17T01:57:59.984Z,3.70
2023-01-17T01:58:15.219Z,3.80
2023-01-17T01:58:27.694Z,3.70
2023-01-17T01:58:39.335Z,3.70
2023-01-17T01:58:51.241Z,3.70
2023-01-17T01:59:03.200Z,3.80
2023-01-17T01:59:16.438Z,3.70
2023-01-17T01:59:30.658Z,3.80
2023-01-17T01:59:46.161Z,3.70
2023-01-17T01:59:59.510Z,3.80
2023-01-17T02:00:17.440Z,3.80
2023-01-17T02:00:30.820Z,3.80
2023-01-17T02:00:42.515Z,3.80
2023-01-17T02:00:54.388Z,3.90
2023-01-17T02:01:06.664Z,3.90
2023-01-17T02:01:18.557Z,3.90
2023-01-17T02:01:30.975Z,3.80
2023-01-17T02:01:42.918Z,3.90
2023-01-17T02:01:55.273Z,3.90
2023-01-17T02:02:06.975Z,3.80
2023-01-17T02:02:18.671Z,3.80
2023-01-17T02:02:30.727Z,3.80
2023-01-17T02:02:42.984Z,3.80
2023-01-17T02:02:54.729Z,3.80
2023-01-17T02:03:09.527Z,3.80
2023-01-17T02:03:25.881Z,3.80
2023-01-17T02:03:37.729Z,3.80
2023-01-17T02:03:49.458Z,3.80
2023-01-17T02:04:01.159Z,3.80
2023-01-17T02:04:13.034Z,3.80
2023-01-17T02:04:25.512Z,3.80
2023-01-17T02:04:37.438Z,3.80
2023-01-17T02:04:49.240Z,3.80
2023-01-17T02:05:02.511Z,3.80
2023-01-17T02:05:17.103Z,3.80
2023-01-17T02:05:28.810Z,3.80
2023-01-17T02:05:42.435Z,3.80
2023-01-17T02:05:54.129Z,3.80
2023-01-17T02:06:25.210Z,3.80
2023-01-17T02:06:42.021Z,3.80
2023-01-17T02:06:56.354Z,3.80
2023-01-17T02:07:13.010Z,3.80
2023-01-17T02:07:36.715Z,3.80
2023-01-17T02:08:03.019Z,3.80
2023-01-17T02:08:15.729Z,3.80
2023-01-17T02:08:27.394Z,3.80
2023-01-17T02:08:39.040Z,3.80
2023-01-17T02:08:50.929Z,3.80
2023-01-17T02:09:04.705Z,3.80
2023-01-17T02:09:17.358Z,3.80
2023-01-17T02:09:29.033Z,3.80
2023-01-17T02:09:40.831Z,3.80
2023-01-17T02:09:52.604Z,3.80
2023-01-17T02:10:04.697Z,3.80
2023-01-17T02:10:16.441Z,3.80
2023-01-17T02:10:28.409Z,3.80
2023-01-17T02:10:41.003Z,3.80
2023-01-17T02:10:52.698Z,3.80
2023-01-17T02:11:04.530Z,3.80
2023-01-17T02:11:16.165Z,3.80
2023-01-17T02:11:28.313Z,3.80
2023-01-17T02:11:40.108Z,3.80
2023-01-17T02:11:51.837Z,3.80
2023-01-17T02:12:04.017Z,3.80
2023-01-17T02:12:15.702Z,3.80
2023-01-17T02:12:27.336Z,3.80
2023-01-17T02:12:39.022Z,3.80
2023-01-17T02:12:51.907Z,3.70
2023-01-17T02:13:03.828Z,3.80
2023-01-17T02:13:16.925Z,3.70
2023-01-17T02:13:29.088Z,3.70
2023-01-17T02:13:40.896Z,3.70
2023-01-17T02:13:52.571Z,3.70
2023-01-17T02:14:04.620Z,3.70
2023-01-17T02:14:17.315Z,3.70
2023-01-17T02:14:29.028Z,3.70
2023-01-17T02:14:40.687Z,3.70
2023-01-17T02:14:52.424Z,3.70
2023-01-17T02:15:06.191Z,3.70
2023-01-17T02:15:18.054Z,3.70
2023-01-17T02:15:41.917Z,3.70
2023-01-17T02:16:08.686Z,3.70
2023-01-17T02:16:44.230Z,3.70
2023-01-17T02:17:26.828Z,3.70
2023-01-17T02:17:47.397Z,3.80
2023-01-17T02:18:33.260Z,3.80
2023-01-17T02:19:05.006Z,3.80
2023-01-17T02:19:25.403Z,3.80
2023-01-17T02:20:10.978Z,3.90
2023-01-17T02:20:33.777Z,3.80
2023-01-17T02:21:08.122Z,3.80
2023-01-17T02:21:23.690Z,3.80
2023-01-17T02:21:37.623Z,3.80
2023-01-17T02:22:17.137Z,3.80
2023-01-17T02:22:56.671Z,3.80
2023-01-17T02:23:14.179Z,3.80
2023-01-17T02:23:34.833Z,3.90
2023-01-17T02:24:14.316Z,3.90
2023-01-17T02:24:38.526Z,3.90
2023-01-17T02:25:11.441Z,3.90
2023-01-17T02:25:48.077Z,3.90
2023-01-17T02:26:05.366Z,3.90
2023-01-17T02:26:31.095Z,3.90
2023-01-17T02:27:04.559Z,3.90
2023-01-17T02:27:27.346Z,3.90
2023-01-17T02:27:52.762Z,3.90
2023-01-17T02:28:07.300Z,3.90
2023-01-17T02:28:33.227Z,3.90
2023-01-17T02:29:12.321Z,3.90
2023-01-17T02:29:49.651Z,3.90
2023-01-17T02:30:35.233Z,3.90
2023-01-17T02:30:48.413Z,3.90
2023-01-17T02:31:12.382Z,3.90
2023-01-17T02:31:27.901Z,3.90
2023-01-17T02:31:51.962Z,3.90
2023-01-17T02:32:14.619Z,3.90
2023-01-17T02:32:38.579Z,3.90
2023-01-17T02:33:03.772Z,3.90
2023-01-17T02:33:33.231Z,3.90
2023-01-17T02:34:06.915Z,3.90
2023-01-17T02:34:47.525Z,3.90
2023-01-17T02:35:14.275Z,3.90
2023-01-17T02:35:48.049Z,3.90
2023-01-17T02:36:10.128Z,3.90
2023-01-17T02:36:36.243Z,3.90
2023-01-17T02:37:15.468Z,3.90
2023-01-17T02:37:48.261Z,3.90
2023-01-17T02:38:11.490Z,3.80
2023-01-17T02:38:47.020Z,3.80
2023-01-17T02:39:09.820Z,3.80
2023-01-17T02:39:27.202Z,3.80
2023-01-17T02:39:51.600Z,3.80
2023-01-17T02:40:14.424Z,3.80
2023-01-17T02:40:41.411Z,3.80
2023-01-17T02:41:14.240Z,3.90
2023-01-17T02:41:35.649Z,3.90
2023-01-17T02:42:08.015Z,3.90
2023-01-17T02:42:19.781Z,3.90
2023-01-17T02:42:42.905Z,3.80
2023-01-17T02:43:00.637Z,3.90
2023-01-17T02:43:14.612Z,3.90
2023-01-17T02:43:26.262Z,3.80
2023-01-17T02:43:37.938Z,3.80
2023-01-17T02:43:50.471Z,3.80
2023-01-17T02:44:02.381Z,3.90
2023-01-17T02:44:16.617Z,3.90
2023-01-17T02:44:28.357Z,3.90
2023-01-17T02:44:43.014Z,3.90
2023-01-17T02:44:54.707Z,3.90
2023-01-17T02:45:07.918Z,3.90
2023-01-17T02:45:20.295Z,3.80
2023-01-17T02:45:32.046Z,3.80
2023-01-17T02:45:43.883Z,3.90
2023-01-17T02:45:55.660Z,3.90
2023-01-17T02:46:09.692Z,3.90
2023-01-17T02:46:21.868Z,3.90
2023-01-17T02:46:42.542Z,3.90
2023-01-17T02:46:55.865Z,3.90
2023-01-17T02:47:28.746Z,3.90
2023-01-17T02:47:40.465Z,3.90
2023-01-17T02:47:52.131Z,3.90
2023-01-17T02:48:04.294Z,3.90
2023-01-17T02:48:17.010Z,3.90
2023-01-17T02:48:30.567Z,3.90
2023-01-17T02:48:42.288Z,3.90
2023-01-17T02:48:54.327Z,3.90
2023-01-17T02:49:05.982Z,3.90
2023-01-17T02:49:19.081Z,3.90
2023-01-17T02:49:30.732Z,3.90
2023-01-17T02:49:42.430Z,3.90
2023-01-17T02:49:58.446Z,3.90
2023-01-17T02:50:16.908Z,3.90
2023-01-17T02:50:38.114Z,3.90
2023-01-17T02:51:33.936Z,3.90
2023-01-17T02:52:01.115Z,3.90
2023-01-17T02:52:36.834Z,3.90
2023-01-17T02:53:18.069Z,3.90
2023-01-17T02:53:49.044Z,3.90
2023-01-17T02:54:37.932Z,3.90
2023-01-17T02:55:13.399Z,3.90
2023-01-17T02:55:46.250Z,3.90
2023-01-17T02:56:03.136Z,3.90
2023-01-17T02:56:23.539Z,3.90
2023-01-17T02:56:58.061Z,3.90
2023-01-17T02:57:39.145Z,4.00
2023-01-17T02:58:09.657Z,4.00
2023-01-17T02:58:34.676Z,4.10
2023-01-17T02:59:07.944Z,4.10
2023-01-17T02:59:19.637Z,4.10
2023-01-17T02:59:43.170Z,4.10
2023-01-17T03:00:13.180Z,4.00
2023-01-17T03:00:35.450Z,4.00
2023-01-17T03:01:08.543Z,4.00
2023-01-17T03:01:30.286Z,4.00
2023-01-17T03:01:55.215Z,4.00
2023-01-17T03:02:30.581Z,4.00
2023-01-17T03:03:09.935Z,4.00
2023-01-17T03:03:24.583Z,4.00
2023-01-17T03:03:50.320Z,4.00
2023-01-17T03:04:08.731Z,4.00
2023-01-17T03:04:23.821Z,4.00
2023-01-17T03:04:48.330Z,4.00
2023-01-17T03:05:23.993Z,4.00
2023-01-17T03:05:44.335Z,4.00
2023-01-17T03:06:11.556Z,4.00
2023-01-17T03:06:47.976Z,4.00
2023-01-17T03:07:05.082Z,4.00
2023-01-17T03:07:19.747Z,4.00
2023-01-17T03:07:31.455Z,4.00
2023-01-17T03:07:44.308Z,4.00
2023-01-17T03:07:56.133Z,4.00
2023-01-17T03:08:07.813Z,4.00
2023-01-17T03:08:19.492Z,4.00
2023-01-17T03:08:31.182Z,4.00
2023-01-17T03:08:44.169Z,4.00
2023-01-17T03:08:55.901Z,4.10
2023-01-17T03:09:07.887Z,4.10
2023-01-17T03:09:19.570Z,4.10
2023-01-17T03:09:31.271Z,4.10
2023-01-17T03:09:45.856Z,4.00
2023-01-17T03:09:59.993Z,4.00
2023-01-17T03:10:11.691Z,4.00
2023-01-17T03:10:23.353Z,4.00
2023-01-17T03:10:35.056Z,4.10
2023-01-17T03:10:46.902Z,4.00
2023-01-17T03:10:58.643Z,4.10
2023-01-17T03:11:10.860Z,4.10
2023-01-17T03:11:22.528Z,4.10
2023-01-17T03:11:34.654Z,4.00
2023-01-17T03:11:46.644Z,4.00
2023-01-17T03:11:58.735Z,4.10
2023-01-17T03:12:10.399Z,4.00
2023-01-17T03:12:22.187Z,4.00
2023-01-17T03:12:35.411Z,4.00
2023-01-17T03:12:47.133Z,4.00
2023-01-17T03:12:58.950Z,4.00
2023-01-17T03:13:10.585Z,4.00
2023-01-17T03:13:22.454Z,4.00
2023-01-17T03:13:34.152Z,4.00
2023-01-17T03:13:45.788Z,4.00
2023-01-17T03:13:57.536Z,4.00
2023-01-17T03:14:09.215Z,4.00
2023-01-17T03:14:20.990Z,4.00
2023-01-17T03:14:32.719Z,4.10
2023-01-17T03:14:44.418Z,4.10
2023-01-17T03:14:56.318Z,4.10
2023-01-17T03:15:15.636Z,4.00
2023-01-17T03:15:27.373Z,4.10
2023-01-17T03:15:39.733Z,4.10
2023-01-17T03:15:51.548Z,4.10
2023-01-17T03:16:04.625Z,4.10
2023-01-17T03:16:21.580Z,4.10
2023-01-17T03:16:33.379Z,4.10
2023-01-17T03:16:45.203Z,4.10
2023-01-17T03:16:56.924Z,4.10
2023-01-17T03:17:08.996Z,4.10
2023-01-17T03:17:21.130Z,4.10
2023-01-17T03:17:33.061Z,4.10
2023-01-17T03:17:49.392Z,4.10
2023-01-17T03:18:04.394Z,4.10
2023-01-17T03:18:16.143Z,4.10
2023-01-17T03:18:27.818Z,4.10
2023-01-17T03:18:39.488Z,4.10
2023-01-17T03:18:51.151Z,4.20
2023-01-17T03:19:02.818Z,4.10
2023-01-17T03:19:18.654Z,4.10
2023-01-17T03:19:31.293Z,4.10
2023-01-17T03:19:43.111Z,4.10
2023-01-17T03:19:54.811Z,4.10
2023-01-17T03:20:06.790Z,4.10
2023-01-17T03:20:18.938Z,4.10
2023-01-17T03:20:30.665Z,4.20
2023-01-17T03:20:42.529Z,4.20
2023-01-17T03:20:54.210Z,4.20
2023-01-17T03:21:06.033Z,4.20
2023-01-17T03:21:17.775Z,4.20
2023-01-17T03:21:29.438Z,4.20
2023-01-17T03:21:41.260Z,4.20
2023-01-17T03:21:53.014Z,4.20
2023-01-17T03:22:04.696Z,4.30
2023-01-17T03:22:16.920Z,4.20
2023-01-17T03:22:28.627Z,4.30
2023-01-17T03:22:40.281Z,4.20
2023-01-17T03:22:51.955Z,4.20
2023-01-17T03:23:03.642Z,4.20
2023-01-17T03:23:15.444Z,4.20
2023-01-17T03:23:27.374Z,4.20
2023-01-17T03:23:39.103Z,4.20
2023-01-17T03:23:50.895Z,4.20
2023-01-17T03:24:03.083Z,4.30
2023-01-17T03:24:14.766Z,4.20
2023-01-17T03:24:26.513Z,4.20
2023-01-17T03:24:38.182Z,4.20
2023-01-17T03:24:50.152Z,4.20
2023-01-17T03:25:01.812Z,4.20
2023-01-17T03:25:13.601Z,4.20
2023-01-17T03:25:25.299Z,4.20
2023-01-17T03:25:37.029Z,4.20
2023-01-17T03:25:48.796Z,4.20
2023-01-17T03:26:00.424Z,4.20
2023-01-17T03:26:12.114Z,4.20
2023-01-17T03:26:23.755Z,4.20
2023-01-17T03:26:35.442Z,4.20
2023-01-17T03:26:47.834Z,4.20
2023-01-17T03:26:59.641Z,4.20
2023-01-17T03:27:11.377Z,4.20
2023-01-17T03:27:23.054Z,4.30
2023-01-17T03:27:34.727Z,4.20
2023-01-17T03:27:46.471Z,4.30
2023-01-17T03:27:58.110Z,4.20
2023-01-17T03:28:09.838Z,4.20
2023-01-17T03:28:21.717Z,4.30
2023-01-17T03:28:33.389Z,4.20
2023-01-17T03:28:45.163Z,4.20
2023-01-17T03:28:56.798Z,4.20
2023-01-17T03:29:08.430Z,4.20
2023-01-17T03:29:20.075Z,4.20
2023-01-17T03:29:31.710Z,4.20
2023-01-17T03:29:43.334Z,4.20
2023-01-17T03:29:57.376Z,4.20
2023-01-17T03:30:09.653Z,4.30
2023-01-17T03:30:23.062Z,4.30
2023-01-17T03:30:34.884Z,4.20
2023-01-17T03:30:46.691Z,4.20
2023-01-17T03:30:58.449Z,4.20
2023-01-17T03:31:13.049Z,4.30
2023-01-17T03:31:24.720Z,4.30
2023-01-17T03:31:36.348Z,4.30
2023-01-17T03:31:48.058Z,4.30
2023-01-17T03:31:59.725Z,4.30
2023-01-17T03:32:11.419Z,4.30
2023-01-17T03:32:23.173Z,4.30
2023-01-17T03:32:34.851Z,4.30
2023-01-17T03:32:46.574Z,4.30
2023-01-17T03:32:58.341Z,4.30
2023-01-17T03:33:10.016Z,4.30
2023-01-17T03:33:21.933Z,4.30
2023-01-17T03:33:33.660Z,4.30
2023-01-17T03:33:45.471Z,4.30
2023-01-17T03:33:57.120Z,4.30
2023-01-17T03:34:08.832Z,4.30
2023-01-17T03:34:20.523Z,4.30
2023-01-17T03:34:32.203Z,4.30
2023-01-17T03:34:43.842Z,4.40
2023-01-17T03:34:55.618Z,4.30
2023-01-17T03:35:07.627Z,4.40
2023-01-17T03:35:19.304Z,4.30
2023-01-17T03:35:31.001Z,4.40
2023-01-17T03:35:42.685Z,4.30
2023-01-17T03:35:57.956Z,4.40
2023-01-17T03:36:09.862Z,4.40
2023-01-17T03:36:21.664Z,4.40
2023-01-17T03:36:33.346Z,4.40
2023-01-17T03:36:45.022Z,4.40
2023-01-17T03:36:56.716Z,4.40
2023-01-17T03:37:08.385Z,4.40
2023-01-17T03:37:20.056Z,4.40
2023-01-17T03:37:31.725Z,4.40
2023-01-17T03:37:43.414Z,4.40
2023-01-17T03:37:55.149Z,4.40
2023-01-17T03:38:06.806Z,4.40
2023-01-17T03:38:19.406Z,4.40
2023-01-17T03:38:31.029Z,4.40
2023-01-17T03:38:42.709Z,4.40
2023-01-17T03:38:54.347Z,4.50
2023-01-17T03:39:06.062Z,4.50
2023-01-17T03:39:17.725Z,4.50
2023-01-17T03:39:29.345Z,4.50
2023-01-17T03:39:41.064Z,4.50
2023-01-17T03:39:52.746Z,4.50
2023-01-17T03:40:04.869Z,4.50
2023-01-17T03:40:16.836Z,4.50
2023-01-17T03:40:28.545Z,4.60
2023-01-17T03:40:40.546Z,4.60
2023-01-17T03:40:52.267Z,4.60
2023-01-17T03:41:04.538Z,4.60
2023-01-17T03:41:16.292Z,4.60
2023-01-17T03:41:27.946Z,4.60
2023-01-17T03:41:39.621Z,4.50
2023-01-17T03:41:51.486Z,4.60
2023-01-17T03:42:03.198Z,4.60
2023-01-17T03:42:14.836Z,4.60
2023-01-17T03:42:26.511Z,4.60
2023-01-17T03:42:38.202Z,4.60
2023-01-17T03:42:49.876Z,4.60
2023-01-17T03:43:01.544Z,4.60
2023-01-17T03:43:13.191Z,4.60
2023-01-17T03:43:24.851Z,4.60
2023-01-17T03:43:36.535Z,4.60
2023-01-17T03:43:48.304Z,4.60
2023-01-17T03:44:00.797Z,4.60
2023-01-17T03:44:12.435Z,4.60
2023-01-17T03:44:24.151Z,4.60
2023-01-17T03:44:35.843Z,4.60
2023-01-17T03:44:47.545Z,4.60
2023-01-17T03:44:59.228Z,4.60
2023-01-17T03:45:11.388Z,4.70
2023-01-17T03:45:23.064Z,4.70
2023-01-17T03:45:34.867Z,4.60
2023-01-17T03:45:54.506Z,4.60
2023-01-17T03:46:08.215Z,4.70
2023-01-17T03:46:27.388Z,4.60
2023-01-17T03:46:39.035Z,4.60
2023-01-17T03:46:50.701Z,4.70
2023-01-17T03:47:02.482Z,4.70
2023-01-17T03:47:14.129Z,4.60
2023-01-17T03:47:25.798Z,4.60
2023-01-17T03:47:37.468Z,4.60
2023-01-17T03:47:49.156Z,4.70
2023-01-17T03:48:00.854Z,4.70
2023-01-17T03:48:12.775Z,4.60
2023-01-17T03:48:24.408Z,4.70
2023-01-17T03:48:36.080Z,4.70
2023-01-17T03:48:47.861Z,4.70
2023-01-17T03:48:59.496Z,4.70
2023-01-17T03:49:11.233Z,4.70
2023-01-17T03:49:22.981Z,4.60
2023-01-17T03:49:34.631Z,4.60
2023-01-17T03:49:46.297Z,4.60
2023-01-17T03:49:57.987Z,4.70
2023-01-17T03:50:10.432Z,4.70
2023-01-17T03:50:22.399Z,4.60
2023-01-17T03:50:34.140Z,4.70
2023-01-17T03:50:45.878Z,4.60
2023-01-17T03:50:57.872Z,4.70
2023-01-17T03:51:09.593Z,4.70
2023-01-17T03:51:21.487Z,4.70